sensor_id;sensor_type;location;lat;lon;timestamp;pressure;altitude;pressure_sealevel;temperature;humidity
67345;BME280;54230;52.402;6.276;2022-11-25T00:00:00;101040.0;;;7.8;88.9
67345;BME280;54230;52.402;6.276;2022-11-25T00:05:00;101040.0;;;7.8;88.9
67345;BME280;54230;52.402;6.276;2022-11-25T00:10:00;101040.0;;;7.7;89.2
67345;BME280;54230;52.402;6.276;2022-11-25T00:15:00;101030.0;;;7.7;89.5
67345;BME280;54230;52.402;6.276;2022-11-25T00:20:00;101020.0;;;7.7;89.7
67345;BME280;54230;52.402;6.276;2022-11-25T00:25:00;101020.0;;;7.7;89.8
67345;BME280;54230;52.402;6.276;2022-11-25T00:30:00;101020.0;;;7.7;89.9
67345;BME280;54230;52.402;6.276;2022-11-25T00:35:00;101020.0;;;7.7;90.1
67345;BME280;54230;52.402;6.276;2022-11-25T00:40:00;101010.0;;;7.7;90.4
67345;BME280;54230;52.402;6.276;2022-11-25T00:45:00;101010.0;;;7.7;90.8
67345;BME280;54230;52.402;6.276;2022-11-25T00:50:00;101010.0;;;7.8;90.6
67345;BME280;54230;52.402;6.276;2022-11-25T00:55:00;101010.0;;;7.8;90.7
67345;BME280;54230;52.402;6.276;2022-11-25T01:00:00;101020.0;;;7.8;91.2
67345;BME280;54230;52.402;6.276;2022-11-25T01:05:00;101020.0;;;7.8;92.4
67345;BME280;54230;52.402;6.276;2022-11-25T01:10:00;101020.0;;;7.7;93.4
67345;BME280;54230;52.402;6.276;2022-11-25T01:15:00;101020.0;;;7.8;93.7
67345;BME280;54230;52.402;6.276;2022-11-25T01:20:00;101020.0;;;7.7;94.5
67345;BME280;54230;52.402;6.276;2022-11-25T01:25:00;101030.0;;;7.7;95.5
67345;BME280;54230;52.402;6.276;2022-11-25T01:30:00;101020.0;;;7.7;96.2
67345;BME280;54230;52.402;6.276;2022-11-25T01:35:00;101020.0;;;7.7;97.1
67345;BME280;54230;52.402;6.276;2022-11-25T01:40:00;101020.0;;;7.7;97.5
67345;BME280;54230;52.402;6.276;2022-11-25T01:50:02;101010.0;;;7.7;98.8
67345;BME280;54230;52.402;6.276;2022-11-25T01:55:02;101010.0;;;7.6;98.8
67345;BME280;54230;52.402;6.276;2022-11-25T02:00:02;101000.0;;;7.6;99.4
67345;BME280;54230;52.402;6.276;2022-11-25T02:05:00;100990.0;;;7.6;99.6
67345;BME280;54230;52.402;6.276;2022-11-25T02:10:01;101000.0;;;7.7;99.6
67345;BME280;54230;52.402;6.276;2022-11-25T02:15:00;101000.0;;;7.7;99.9
67345;BME280;54230;52.402;6.276;2022-11-25T02:20:02;101000.0;;;7.7;100.0
67345;BME280;54230;52.402;6.276;2022-11-25T02:25:05;101000.0;;;7.7;100.0
67345;BME280;54230;52.402;6.276;2022-11-25T02:30:00;101000.0;;;7.7;100.0
67345;BME280;54230;52.402;6.276;2022-11-25T02:35:00;101000.0;;;7.7;100.0
67345;BME280;54230;52.402;6.276;2022-11-25T02:40:00;101000.0;;;7.7;100.0
67345;BME280;54230;52.402;6.276;2022-11-25T02:45:00;101000.0;;;7.7;100.0
67345;BME280;54230;52.402;6.276;2022-11-25T02:50:00;101000.0;;;7.7;100.0
67345;BME280;54230;52.402;6.276;2022-11-25T02:55:00;101010.0;;;7.8;100.0
67345;BME280;54230;52.402;6.276;2022-11-25T03:00:00;101010.0;;;7.8;100.0
67345;BME280;54230;52.402;6.276;2022-11-25T03:05:00;100990.0;;;7.8;100.0
67345;BME280;54230;52.402;6.276;2022-11-25T03:10:00;101000.0;;;7.9;100.0
67345;BME280;54230;52.402;6.276;2022-11-25T03:15:00;101010.0;;;7.9;100.0
67345;BME280;54230;52.402;6.276;2022-11-25T03:20:00;101020.0;;;7.9;100.0
67345;BME280;54230;52.402;6.276;2022-11-25T03:25:00;101020.0;;;7.9;100.0
67345;BME280;54230;52.402;6.276;2022-11-25T03:30:00;101010.0;;;7.8;100.0
67345;BME280;54230;52.402;6.276;2022-11-25T03:35:00;101000.0;;;7.9;100.0
67345;BME280;54230;52.402;6.276;2022-11-25T03:40:00;101010.0;;;7.8;100.0
67345;BME280;54230;52.402;6.276;2022-11-25T03:45:00;101030.0;;;7.9;100.0
67345;BME280;54230;52.402;6.276;2022-11-25T03:50:00;101030.0;;;7.8;100.0
67345;BME280;54230;52.402;6.276;2022-11-25T03:55:00;101020.0;;;7.9;100.0
67345;BME280;54230;52.402;6.276;2022-11-25T04:00:00;101010.0;;;7.9;100.0
67345;BME280;54230;52.402;6.276;2022-11-25T04:05:00;101020.0;;;8.0;100.0
67345;BME280;54230;52.402;6.276;2022-11-25T04:10:00;101020.0;;;8.0;100.0
67345;BME280;54230;52.402;6.276;2022-11-25T04:15:00;101030.0;;;7.9;100.0
67345;BME280;54230;52.402;6.276;2022-11-25T04:20:00;101010.0;;;8.0;100.0
67345;BME280;54230;52.402;6.276;2022-11-25T04:25:00;101010.0;;;8.0;100.0
67345;BME280;54230;52.402;6.276;2022-11-25T04:30:00;101010.0;;;8.0;100.0
67345;BME280;54230;52.402;6.276;2022-11-25T04:35:00;101020.0;;;8.0;100.0
67345;BME280;54230;52.402;6.276;2022-11-25T04:40:00;101040.0;;;8.0;100.0
67345;BME280;54230;52.402;6.276;2022-11-25T04:45:01;101060.0;;;8.0;100.0
67345;BME280;54230;52.402;6.276;2022-11-25T04:50:00;101070.0;;;8.1;100.0
67345;BME280;54230;52.402;6.276;2022-11-25T04:55:00;101070.0;;;8.1;100.0
67345;BME280;54230;52.402;6.276;2022-11-25T05:00:00;101080.0;;;8.0;100.0
67345;BME280;54230;52.402;6.276;2022-11-25T05:05:00;101080.0;;;8.0;100.0
67345;BME280;54230;52.402;6.276;2022-11-25T05:10:00;101090.0;;;8.0;100.0
67345;BME280;54230;52.402;6.276;2022-11-25T05:15:00;101090.0;;;8.0;100.0
67345;BME280;54230;52.402;6.276;2022-11-25T05:20:00;101100.0;;;8.0;100.0
67345;BME280;54230;52.402;6.276;2022-11-25T05:25:00;101110.0;;;8.0;100.0
67345;BME280;54230;52.402;6.276;2022-11-25T05:30:00;101110.0;;;8.0;100.0
67345;BME280;54230;52.402;6.276;2022-11-25T05:35:00;101110.0;;;8.0;100.0
67345;BME280;54230;52.402;6.276;2022-11-25T05:40:00;101110.0;;;7.9;100.0
67345;BME280;54230;52.402;6.276;2022-11-25T05:45:00;101120.0;;;7.8;100.0
67345;BME280;54230;52.402;6.276;2022-11-25T05:50:00;101120.0;;;7.8;100.0
67345;BME280;54230;52.402;6.276;2022-11-25T05:55:00;101120.0;;;7.8;100.0
67345;BME280;54230;52.402;6.276;2022-11-25T06:00:00;101130.0;;;7.8;100.0
67345;BME280;54230;52.402;6.276;2022-11-25T06:05:00;101140.0;;;7.9;100.0
67345;BME280;54230;52.402;6.276;2022-11-25T06:10:00;101150.0;;;7.9;100.0
67345;BME280;54230;52.402;6.276;2022-11-25T06:15:00;101150.0;;;7.9;100.0
67345;BME280;54230;52.402;6.276;2022-11-25T06:20:00;101150.0;;;7.9;100.0
67345;BME280;54230;52.402;6.276;2022-11-25T06:25:00;101160.0;;;7.9;100.0
67345;BME280;54230;52.402;6.276;2022-11-25T06:30:00;101160.0;;;7.8;100.0
67345;BME280;54230;52.402;6.276;2022-11-25T06:35:00;101170.0;;;7.7;100.0
67345;BME280;54230;52.402;6.276;2022-11-25T06:40:00;101170.0;;;7.7;100.0
67345;BME280;54230;52.402;6.276;2022-11-25T06:45:00;101180.0;;;7.7;100.0
67345;BME280;54230;52.402;6.276;2022-11-25T06:50:00;101190.0;;;7.6;100.0
67345;BME280;54230;52.402;6.276;2022-11-25T06:55:00;101190.0;;;7.5;100.0
67345;BME280;54230;52.402;6.276;2022-11-25T07:00:00;101200.0;;;7.5;100.0
67345;BME280;54230;52.402;6.276;2022-11-25T07:05:00;101210.0;;;7.4;100.0
67345;BME280;54230;52.402;6.276;2022-11-25T07:10:00;101210.0;;;7.4;100.0
67345;BME280;54230;52.402;6.276;2022-11-25T07:15:00;101220.0;;;7.4;100.0
67345;BME280;54230;52.402;6.276;2022-11-25T07:20:00;101220.0;;;7.3;100.0
67345;BME280;54230;52.402;6.276;2022-11-25T07:25:00;101230.0;;;7.3;100.0
67345;BME280;54230;52.402;6.276;2022-11-25T07:30:00;101240.0;;;7.3;100.0
67345;BME280;54230;52.402;6.276;2022-11-25T07:35:00;101250.0;;;7.3;100.0
67345;BME280;54230;52.402;6.276;2022-11-25T07:40:00;101240.0;;;7.2;100.0
67345;BME280;54230;52.402;6.276;2022-11-25T07:45:00;101260.0;;;7.3;100.0
67345;BME280;54230;52.402;6.276;2022-11-25T07:50:00;101280.0;;;7.3;100.0
67345;BME280;54230;52.402;6.276;2022-11-25T07:55:00;101290.0;;;7.3;100.0
67345;BME280;54230;52.402;6.276;2022-11-25T08:00:00;101290.0;;;7.4;100.0
67345;BME280;54230;52.402;6.276;2022-11-25T08:05:00;101290.0;;;7.5;100.0
67345;BME280;54230;52.402;6.276;2022-11-25T08:10:00;101270.0;;;7.4;100.0
67345;BME280;54230;52.402;6.276;2022-11-25T08:15:00;101290.0;;;7.6;100.0
67345;BME280;54230;52.402;6.276;2022-11-25T08:20:00;101290.0;;;7.6;100.0
67345;BME280;54230;52.402;6.276;2022-11-25T08:25:00;101300.0;;;7.7;100.0
67345;BME280;54230;52.402;6.276;2022-11-25T08:30:00;101310.0;;;7.7;100.0
67345;BME280;54230;52.402;6.276;2022-11-25T08:35:00;101320.0;;;7.8;100.0
67345;BME280;54230;52.402;6.276;2022-11-25T08:40:00;101320.0;;;7.9;100.0
67345;BME280;54230;52.402;6.276;2022-11-25T08:45:00;101340.0;;;8.0;100.0
67345;BME280;54230;52.402;6.276;2022-11-25T08:50:00;101350.0;;;8.1;100.0
67345;BME280;54230;52.402;6.276;2022-11-25T08:55:00;101350.0;;;8.2;100.0
67345;BME280;54230;52.402;6.276;2022-11-25T09:00:00;101350.0;;;8.3;100.0
67345;BME280;54230;52.402;6.276;2022-11-25T09:05:00;101350.0;;;8.3;100.0
67345;BME280;54230;52.402;6.276;2022-11-25T09:10:00;101350.0;;;8.4;100.0
67345;BME280;54230;52.402;6.276;2022-11-25T09:15:00;101360.0;;;8.5;100.0
67345;BME280;54230;52.402;6.276;2022-11-25T09:20:00;101370.0;;;8.7;100.0
67345;BME280;54230;52.402;6.276;2022-11-25T09:25:00;101380.0;;;8.9;100.0
67345;BME280;54230;52.402;6.276;2022-11-25T09:30:00;101380.0;;;9.0;98.8
67345;BME280;54230;52.402;6.276;2022-11-25T09:35:00;101390.0;;;9.1;97.8
67345;BME280;54230;52.402;6.276;2022-11-25T09:40:00;101400.0;;;9.2;96.2
67345;BME280;54230;52.402;6.276;2022-11-25T09:45:09;101410.0;;;9.4;94.9
67345;BME280;54230;52.402;6.276;2022-11-25T09:50:07;101420.0;;;9.5;93.6
67345;BME280;54230;52.402;6.276;2022-11-25T09:55:04;101430.0;;;9.7;92.6
67345;BME280;54230;52.402;6.276;2022-11-25T10:00:04;101440.0;;;9.7;91.6
67345;BME280;54230;52.402;6.276;2022-11-25T10:05:03;101450.0;;;9.9;90.9
67345;BME280;54230;52.402;6.276;2022-11-25T10:10:02;101440.0;;;10.0;90.3
67345;BME280;54230;52.402;6.276;2022-11-25T10:15:02;101440.0;;;10.1;90.2
67345;BME280;54230;52.402;6.276;2022-11-25T10:20:04;101440.0;;;10.2;89.4
67345;BME280;54230;52.402;6.276;2022-11-25T10:25:01;101450.0;;;10.3;89.5
67345;BME280;54230;52.402;6.276;2022-11-25T10:30:06;101450.0;;;10.3;88.1
67345;BME280;54230;52.402;6.276;2022-11-25T10:35:04;101450.0;;;10.4;87.8
67345;BME280;54230;52.402;6.276;2022-11-25T10:40:00;101450.0;;;10.5;87.4
67345;BME280;54230;52.402;6.276;2022-11-25T10:45:00;101460.0;;;10.7;86.3
67345;BME280;54230;52.402;6.276;2022-11-25T10:50:12;101470.0;;;10.8;86.2
67345;BME280;54230;52.402;6.276;2022-11-25T10:55:08;101480.0;;;10.9;85.6
67345;BME280;54230;52.402;6.276;2022-11-25T11:00:00;101480.0;;;11.0;85.4
67345;BME280;54230;52.402;6.276;2022-11-25T11:05:02;101490.0;;;11.1;84.2
67345;BME280;54230;52.402;6.276;2022-11-25T11:10:14;101490.0;;;11.4;83.5
67345;BME280;54230;52.402;6.276;2022-11-25T11:15:13;101490.0;;;11.4;83.1
67345;BME280;54230;52.402;6.276;2022-11-25T11:20:03;101500.0;;;11.4;82.4
67345;BME280;54230;52.402;6.276;2022-11-25T11:25:26;101510.0;;;11.4;81.5
67345;BME280;54230;52.402;6.276;2022-11-25T11:30:07;101510.0;;;11.5;81.0
67345;BME280;54230;52.402;6.276;2022-11-25T11:35:02;101520.0;;;11.4;81.9
67345;BME280;54230;52.402;6.276;2022-11-25T11:45:08;101530.0;;;11.8;79.2
67345;BME280;54230;52.402;6.276;2022-11-25T11:50:08;101540.0;;;11.9;79.5
67345;BME280;54230;52.402;6.276;2022-11-25T11:55:02;101540.0;;;12.0;79.4
67345;BME280;54230;52.402;6.276;2022-11-25T12:00:02;101540.0;;;12.0;78.6
67345;BME280;54230;52.402;6.276;2022-11-25T12:05:11;101550.0;;;12.0;78.7
67345;BME280;54230;52.402;6.276;2022-11-25T12:10:03;101560.0;;;12.0;78.4
67345;BME280;54230;52.402;6.276;2022-11-25T12:15:03;101570.0;;;11.9;77.9
67345;BME280;54230;52.402;6.276;2022-11-25T12:20:04;101580.0;;;11.8;79.1
67345;BME280;54230;52.402;6.276;2022-11-25T12:25:04;101580.0;;;11.9;78.8
67345;BME280;54230;52.402;6.276;2022-11-25T12:30:03;101580.0;;;12.1;78.4
67345;BME280;54230;52.402;6.276;2022-11-25T12:35:03;101580.0;;;12.1;78.6
67345;BME280;54230;52.402;6.276;2022-11-25T12:40:03;101590.0;;;12.0;78.8
67345;BME280;54230;52.402;6.276;2022-11-25T12:45:03;101600.0;;;11.7;79.5
67345;BME280;54230;52.402;6.276;2022-11-25T12:50:00;101600.0;;;11.8;80.5
67345;BME280;54230;52.402;6.276;2022-11-25T12:55:08;101610.0;;;11.6;80.7
67345;BME280;54230;52.402;6.276;2022-11-25T13:00:08;101620.0;;;11.3;81.9
67345;BME280;54230;52.402;6.276;2022-11-25T13:05:16;101620.0;;;11.4;82.3
67345;BME280;54230;52.402;6.276;2022-11-25T13:15:15;101640.0;;;11.4;82.1
67345;BME280;54230;52.402;6.276;2022-11-25T13:25:00;101650.0;;;11.4;82.2
67345;BME280;54230;52.402;6.276;2022-11-25T13:30:00;101640.0;;;11.4;82.3
67345;BME280;54230;52.402;6.276;2022-11-25T13:45:00;101650.0;;;11.0;83.7
67345;BME280;54230;52.402;6.276;2022-11-25T13:50:02;101670.0;;;11.2;83.8
67345;BME280;54230;52.402;6.276;2022-11-25T13:55:04;101680.0;;;11.1;84.0
67345;BME280;54230;52.402;6.276;2022-11-25T14:00:04;101690.0;;;11.1;83.6
67345;BME280;54230;52.402;6.276;2022-11-25T14:05:04;101680.0;;;11.1;83.9
67345;BME280;54230;52.402;6.276;2022-11-25T14:10:09;101690.0;;;11.1;83.8
67345;BME280;54230;52.402;6.276;2022-11-25T14:15:07;101680.0;;;11.1;83.9
67345;BME280;54230;52.402;6.276;2022-11-25T14:20:13;101710.0;;;11.3;83.4
67345;BME280;54230;52.402;6.276;2022-11-25T14:25:10;101710.0;;;11.3;83.5
67345;BME280;54230;52.402;6.276;2022-11-25T14:30:03;101720.0;;;11.5;82.7
67345;BME280;54230;52.402;6.276;2022-11-25T14:35:03;101720.0;;;11.6;81.9
67345;BME280;54230;52.402;6.276;2022-11-25T14:40:03;101730.0;;;11.4;82.6
67345;BME280;54230;52.402;6.276;2022-11-25T14:45:00;101730.0;;;11.1;83.7
67345;BME280;54230;52.402;6.276;2022-11-25T14:50:00;101750.0;;;10.9;84.9
67345;BME280;54230;52.402;6.276;2022-11-25T14:55:01;101760.0;;;10.8;85.5
67345;BME280;54230;52.402;6.276;2022-11-25T15:00:03;101770.0;;;10.7;86.0
67345;BME280;54230;52.402;6.276;2022-11-25T15:05:02;101770.0;;;10.6;86.8
67345;BME280;54230;52.402;6.276;2022-11-25T15:10:00;101780.0;;;10.6;87.5
67345;BME280;54230;52.402;6.276;2022-11-25T15:15:00;101790.0;;;10.5;87.6
67345;BME280;54230;52.402;6.276;2022-11-25T15:20:03;101800.0;;;10.3;88.1
67345;BME280;54230;52.402;6.276;2022-11-25T15:25:06;101810.0;;;10.2;89.0
67345;BME280;54230;52.402;6.276;2022-11-25T15:30:00;101810.0;;;10.2;89.0
67345;BME280;54230;52.402;6.276;2022-11-25T15:35:00;101820.0;;;10.1;89.4
67345;BME280;54230;52.402;6.276;2022-11-25T15:45:04;101840.0;;;9.8;90.7
67345;BME280;54230;52.402;6.276;2022-11-25T15:50:03;101850.0;;;9.7;91.2
67345;BME280;54230;52.402;6.276;2022-11-25T15:55:02;101850.0;;;9.7;91.5
67345;BME280;54230;52.402;6.276;2022-11-25T16:00:08;101860.0;;;9.8;91.5
67345;BME280;54230;52.402;6.276;2022-11-25T16:10:00;101890.0;;;9.6;91.9
67345;BME280;54230;52.402;6.276;2022-11-25T16:15:00;101890.0;;;9.5;92.3
67345;BME280;54230;52.402;6.276;2022-11-25T16:20:01;101900.0;;;9.4;92.9
67345;BME280;54230;52.402;6.276;2022-11-25T16:25:00;101910.0;;;9.3;93.6
67345;BME280;54230;52.402;6.276;2022-11-25T16:30:08;101920.0;;;9.2;94.0
67345;BME280;54230;52.402;6.276;2022-11-25T16:35:11;101940.0;;;9.3;94.3
67345;BME280;54230;52.402;6.276;2022-11-25T16:40:00;101940.0;;;9.4;93.9
67345;BME280;54230;52.402;6.276;2022-11-25T16:45:00;101960.0;;;9.3;94.3
67345;BME280;54230;52.402;6.276;2022-11-25T16:50:00;101970.0;;;9.2;94.5
67345;BME280;54230;52.402;6.276;2022-11-25T16:55:00;101970.0;;;9.1;95.0
67345;BME280;54230;52.402;6.276;2022-11-25T17:00:00;101980.0;;;9.1;95.7
67345;BME280;54230;52.402;6.276;2022-11-25T17:05:13;101990.0;;;9.0;96.1
67345;BME280;54230;52.402;6.276;2022-11-25T17:10:00;102000.0;;;8.9;96.4
67345;BME280;54230;52.402;6.276;2022-11-25T17:15:01;102010.0;;;8.9;96.9
67345;BME280;54230;52.402;6.276;2022-11-25T17:20:00;102010.0;;;8.8;97.2
67345;BME280;54230;52.402;6.276;2022-11-25T17:25:00;102020.0;;;8.7;97.8
67345;BME280;54230;52.402;6.276;2022-11-25T17:30:01;102030.0;;;8.6;98.5
67345;BME280;54230;52.402;6.276;2022-11-25T17:35:00;102040.0;;;8.6;98.7
67345;BME280;54230;52.402;6.276;2022-11-25T17:40:00;102050.0;;;8.5;98.9
67345;BME280;54230;52.402;6.276;2022-11-25T17:45:00;102060.0;;;8.4;99.4
67345;BME280;54230;52.402;6.276;2022-11-25T17:50:00;102070.0;;;8.4;99.9
67345;BME280;54230;52.402;6.276;2022-11-25T17:55:00;102080.0;;;8.3;100.0
67345;BME280;54230;52.402;6.276;2022-11-25T18:00:00;102090.0;;;8.3;100.0
67345;BME280;54230;52.402;6.276;2022-11-25T18:05:00;102100.0;;;8.3;100.0
67345;BME280;54230;52.402;6.276;2022-11-25T18:10:00;102110.0;;;8.4;100.0
67345;BME280;54230;52.402;6.276;2022-11-25T18:15:00;102120.0;;;8.3;100.0
67345;BME280;54230;52.402;6.276;2022-11-25T18:20:01;102120.0;;;8.2;100.0
67345;BME280;54230;52.402;6.276;2022-11-25T18:25:00;102130.0;;;8.1;100.0
67345;BME280;54230;52.402;6.276;2022-11-25T18:30:00;102130.0;;;8.0;100.0
67345;BME280;54230;52.402;6.276;2022-11-25T18:35:00;102140.0;;;7.9;100.0
67345;BME280;54230;52.402;6.276;2022-11-25T18:40:00;102150.0;;;7.8;100.0
67345;BME280;54230;52.402;6.276;2022-11-25T18:45:00;102160.0;;;7.8;100.0
67345;BME280;54230;52.402;6.276;2022-11-25T18:50:00;102170.0;;;7.7;100.0
67345;BME280;54230;52.402;6.276;2022-11-25T18:55:00;102180.0;;;7.6;100.0
67345;BME280;54230;52.402;6.276;2022-11-25T19:00:00;102180.0;;;7.6;100.0
67345;BME280;54230;52.402;6.276;2022-11-25T19:05:01;102190.0;;;7.6;100.0
67345;BME280;54230;52.402;6.276;2022-11-25T19:10:00;102200.0;;;7.5;100.0
67345;BME280;54230;52.402;6.276;2022-11-25T19:15:00;102210.0;;;7.4;100.0
67345;BME280;54230;52.402;6.276;2022-11-25T19:20:00;102210.0;;;7.4;100.0
67345;BME280;54230;52.402;6.276;2022-11-25T19:25:00;102220.0;;;7.3;100.0
67345;BME280;54230;52.402;6.276;2022-11-25T19:30:00;102230.0;;;7.3;100.0
67345;BME280;54230;52.402;6.276;2022-11-25T19:35:03;102230.0;;;7.2;100.0
67345;BME280;54230;52.402;6.276;2022-11-25T19:40:00;102240.0;;;7.2;100.0
67345;BME280;54230;52.402;6.276;2022-11-25T19:45:00;102250.0;;;7.1;100.0
67345;BME280;54230;52.402;6.276;2022-11-25T19:50:00;102260.0;;;7.0;100.0
67345;BME280;54230;52.402;6.276;2022-11-25T19:55:00;102270.0;;;7.0;100.0
67345;BME280;54230;52.402;6.276;2022-11-25T20:00:00;102270.0;;;7.0;100.0
67345;BME280;54230;52.402;6.276;2022-11-25T20:05:02;102280.0;;;7.1;100.0
67345;BME280;54230;52.402;6.276;2022-11-25T20:10:06;102280.0;;;7.0;100.0
67345;BME280;54230;52.402;6.276;2022-11-25T20:15:00;102290.0;;;6.9;100.0
67345;BME280;54230;52.402;6.276;2022-11-25T20:20:03;102300.0;;;6.8;100.0
67345;BME280;54230;52.402;6.276;2022-11-25T20:25:02;102300.0;;;6.9;100.0
67345;BME280;54230;52.402;6.276;2022-11-25T20:30:00;102310.0;;;6.8;100.0
67345;BME280;54230;52.402;6.276;2022-11-25T20:35:00;102320.0;;;6.8;100.0
67345;BME280;54230;52.402;6.276;2022-11-25T20:40:00;102320.0;;;6.7;100.0
67345;BME280;54230;52.402;6.276;2022-11-25T20:45:00;102320.0;;;6.7;100.0
67345;BME280;54230;52.402;6.276;2022-11-25T20:50:00;102330.0;;;6.7;100.0
67345;BME280;54230;52.402;6.276;2022-11-25T20:55:00;102340.0;;;6.6;100.0
67345;BME280;54230;52.402;6.276;2022-11-25T21:00:00;102350.0;;;6.6;100.0
67345;BME280;54230;52.402;6.276;2022-11-25T21:05:00;102360.0;;;6.6;100.0
67345;BME280;54230;52.402;6.276;2022-11-25T21:10:00;102360.0;;;6.5;100.0
67345;BME280;54230;52.402;6.276;2022-11-25T21:15:00;102380.0;;;6.5;100.0
67345;BME280;54230;52.402;6.276;2022-11-25T21:20:00;102370.0;;;6.5;100.0
67345;BME280;54230;52.402;6.276;2022-11-25T21:25:00;102380.0;;;6.5;100.0
67345;BME280;54230;52.402;6.276;2022-11-25T21:30:00;102380.0;;;6.4;100.0
67345;BME280;54230;52.402;6.276;2022-11-25T21:35:00;102380.0;;;6.4;100.0
67345;BME280;54230;52.402;6.276;2022-11-25T21:40:00;102390.0;;;6.4;100.0
67345;BME280;54230;52.402;6.276;2022-11-25T21:45:00;102400.0;;;6.3;100.0
67345;BME280;54230;52.402;6.276;2022-11-25T21:50:00;102400.0;;;6.3;100.0
67345;BME280;54230;52.402;6.276;2022-11-25T21:55:00;102409.99999999999;;;6.3;100.0
67345;BME280;54230;52.402;6.276;2022-11-25T22:00:00;102409.99999999999;;;6.2;100.0
67345;BME280;54230;52.402;6.276;2022-11-25T22:05:00;102420.0;;;6.2;100.0
67345;BME280;54230;52.402;6.276;2022-11-25T22:10:00;102440.00000000001;;;6.2;100.0
67345;BME280;54230;52.402;6.276;2022-11-25T22:15:00;102440.00000000001;;;6.2;100.0
67345;BME280;54230;52.402;6.276;2022-11-25T22:20:00;102440.00000000001;;;6.2;100.0
67345;BME280;54230;52.402;6.276;2022-11-25T22:25:00;102440.00000000001;;;6.2;100.0
67345;BME280;54230;52.402;6.276;2022-11-25T22:30:00;102450.0;;;6.1;100.0
67345;BME280;54230;52.402;6.276;2022-11-25T22:35:00;102459.99999999999;;;6.1;100.0
67345;BME280;54230;52.402;6.276;2022-11-25T22:40:00;102450.0;;;6.0;100.0
67345;BME280;54230;52.402;6.276;2022-11-25T22:45:02;102470.0;;;6.1;100.0
67345;BME280;54230;52.402;6.276;2022-11-25T22:50:05;102470.0;;;6.1;100.0
67345;BME280;54230;52.402;6.276;2022-11-25T22:55:04;102480.0;;;6.1;100.0
67345;BME280;54230;52.402;6.276;2022-11-25T23:00:00;102480.0;;;6.0;100.0
67345;BME280;54230;52.402;6.276;2022-11-25T23:05:00;102480.0;;;6.0;100.0
67345;BME280;54230;52.402;6.276;2022-11-25T23:10:00;102470.0;;;5.9;100.0
67345;BME280;54230;52.402;6.276;2022-11-25T23:15:00;102490.00000000001;;;6.0;100.0
67345;BME280;54230;52.402;6.276;2022-11-25T23:20:00;102500.0;;;5.9;100.0
67345;BME280;54230;52.402;6.276;2022-11-25T23:25:00;102500.0;;;5.9;100.0
67345;BME280;54230;52.402;6.276;2022-11-25T23:30:00;102509.99999999999;;;5.8;100.0
67345;BME280;54230;52.402;6.276;2022-11-25T23:35:00;102509.99999999999;;;5.8;100.0
67345;BME280;54230;52.402;6.276;2022-11-25T23:40:00;102480.0;;;5.5;100.0
67345;BME280;54230;52.402;6.276;2022-11-25T23:45:00;102520.0;;;5.7;100.0
67345;BME280;54230;52.402;6.276;2022-11-25T23:50:00;102530.0;;;5.7;100.0
67345;BME280;54230;52.402;6.276;2022-11-25T23:55:00;102530.0;;;5.6;100.0
